Aérodrome :
LOGIN :

S'inscrire | Disclaimer

   EN    FR    IT 

 










Légende :    VFR   VFR Marginal   IFR   IFR Intensif   IFR Très Intensif
Visi : 
Plafond : 
>= 8 km
>= 3000ft
5 à 8 km
1000 à 3000 ft
1500m à 5 km
500 à 1000 ft
800 à 1500m
200 à 500 ft
< 800m
< 200 ft
Symboles :   Orages  Brouillard  Fortes neiges  Fortes précipitations  Vent > 20 kt
SIGMETs :   Divers  Orages  Givrage  Turbulence  Onde Orograph.  Cendres Volcan.







- Altitude de l'aérodrome : 100 ft


EBDT - Schaffen

DERNIER METAR :
  • 120555Z VRB02KT 0500 FZFG SCT009 SCT013 M02/M02 Q1025 RED RED

METARs EXPIRÉS :
  • 120525Z VRB01KT 0500 FZFG SCT009 SCT013 M02/M02 Q1025 RED RED
  • 120455Z VRB01KT 0500 FZFG SCT008 SCT013 M01/M02 Q1025 RED RED
  • 120454Z VRB01KT 0500 FZFG SCT008 SCT013 M01/M02 Q1025 RED RED
  • 120446Z VRB01KT 1000 MIFG SKC M01/M01 Q1025 AMB AMB BECMG RED
  • 120425Z VRB01KT 4000 BR SKC M01/M02 Q1025 GRN
  • 120418Z VRB01KT 4000 BR SKC M00/M00 Q1025 GRN
  • 120355Z AUTO VRB02KT 0350 FG /// M00/M00 Q//// RED
  • 120333Z AUTO VRB02KT 0150 FG /// M00/M00 Q//// RED

TAF COR TAF EBDT
Valide du 12 à 07h jusqu'au 12 à 16h UTC


120541Z 1207/1216 07003KT 0500 FZFG BKN001
BECMG 1209/1211 2000 BR BKN002
BECMG 1212/1214 5000 BR BKN007
BECMG 1214/216 8000 SCT015
Pas de NOTAMs connus pour ce terrain.



MET'MAP, la Météo Aéronautique d'un coup d'oeil ! - Copyright ORBIFLY Décembre 2007 - Disclaimer

ORBIFLY MET'MAP TEAM :

Programmation & Développement : Alexandra Zaïnal
Conception & Développement : Baudouin d'Aumeries
Co-Programmation & Développement : Marc-Olivier Méhu
Soutien technique & logistique : Manuel Goepfert

Contact : metmap@orbifly.com




SOURCES & CREDITS :

   NOAA